PILOTS ONLINE: 331    ATC ONLINE: 30

MDPC

Punta Cana International Airport

Location

IATA PUJ
City Punta Cana
Country  Dominican Republic
Latitude 18° 34' 2" N
Longitude 68° 21' 48" W
Elevation 47 ft
Type Large Airport

Map

Weather

METAR
2014/08/23 09:00
MDPC 230900Z 17006KT 7000 -TSRA FEW014CB BKN015 BKN070 25/24 Q1009 CB/NE/E/SE/S/SW/NW
TAF
2014/08/23 06:09
TAF TAF MDPC 230400Z 2306/2406 19012KT 7000 -RA FEW014CB BKN016 OVC070 
      TEMPO 2306/2312 4000 +TSRA FEW012CB BKN014 OVC070

Runways

09/27 10171 ft / 157 ft

Outbound flights

Callsign Flying to Pilot ATD/STD ETA Aircraft

Inbound flights

Callsign Flying from Pilot ATD ETA Aircraft
SWG426  CYUL - Montréal
Canada
Eivind Wed�
1101386
07:27 11:21 B738